РПИ Одесса

Руководитель РПИ

Andriy Viter*

Инструкторы РПИ
Vladislav Savchuk (Instructor)
Входит в состав
vACC Украина

Диспетчеры РПИ

Диспетчер Рейтинг Допуски *

Аэропорты РПИ

ICAO Город Название Погода
UKOO Одесса Одесса UKOO 161900Z 21001MPS CAVOK M03/M06 Q1022 NOSIG
UKON Николаев Николаев UKON 161500Z 28003MPS 9999 BKN041 01/M05 Q1022 NOSIG
UKOH Херсон Херсон